Terminal Aerodrome Forecast
Issued by NWS Sterling, VA

Current Version | Previous Version | Graphics & Text | Print | Product List | Glossary On
Versions: 1 2 3 4 5 6 7 8 9 10 11 12 13 14 15 16 17
804
FTUS41 KLWX 252101 AAA
TAFMRB
TAF AMD
KMRB 252101Z 2521/2618 01009KT 1 1/2SM -DZ OVC004
     FM260000 02008KT 3SM BR OVC008
     FM260800 34004KT 3SM BR OVC008
     FM261200 33004KT P6SM BKN015=

USA.gov is the U.S. government's official web portal to all federal, state and local government web resources and services.